»·PEaware :: JNY60 KPDX-KGEG

JNY60 :: KPDX-KGEG

FLIGHT INFORMATION

Flight Status: Arrived
Operator: Unknown
More flights by this operator :: More flights under this callsign
Pilot: Max W. (2591)
Aircraft: BOEING 757-200
(B752)
More flights by this aircraft type
Origin: KPDX Portland Intl
United States
Destination: KGEG Spokane Intl
United States
More flights between these airports :: More routes between these airports
Route: +PTLD1 PAPPS ZOOMR ZOOMR1
File this flight plan on PilotEdge
Remarks: student pilot. only have 1 strike left. please dont yell
Altitude:
(Current/Filed)
31,000ft
Speed:
(Current/Filed)
500kts
Departed: 10-Sep-19 02:39 PM
Arrived: 10-Sep-19 03:25 PM
Distance/Time
Traveled:
241nm/0:46
Distance/Time
To Go:
Arrived

Flight Plot

Page will automatically refresh every two minutes.

Flight plan parsing failed; only flown route is shown


Map Options




Map Legend


Flown Route
Filed Route
Departure Airport
Arrival Airport
Navaid (VOR, NDB)
Fix

Horizontal Profiles

Position Reports

Time Latitude Longitude Heading Altitude Ground
Speed
10-Sep-19 14:18 45.587262 -122.582236 209 41ft 0kts
10-Sep-19 14:19 45.587262 -122.582236 209 40ft 0kts
10-Sep-19 14:20 45.587262 -122.582236 209 40ft 0kts
10-Sep-19 14:21 45.587262 -122.582236 209 40ft 0kts
10-Sep-19 14:22 45.587262 -122.582236 209 40ft 0kts
10-Sep-19 14:23 45.587262 -122.582236 209 40ft 0kts
10-Sep-19 14:24 45.587262 -122.582236 209 40ft 0kts
10-Sep-19 14:25 45.587262 -122.582236 209 40ft 0kts
10-Sep-19 14:26 45.587262 -122.582236 209 40ft 0kts
10-Sep-19 14:27 45.587262 -122.582236 209 40ft 0kts
10-Sep-19 14:28 45.587262 -122.582236 209 40ft 0kts
10-Sep-19 14:29 45.587262 -122.582236 209 40ft 0kts
10-Sep-19 14:30 45.588616 -122.583034 310 40ft 9kts
10-Sep-19 14:31 45.590158 -122.586918 298 41ft 13kts
10-Sep-19 14:32 45.592073 -122.591890 299 40ft 12kts
10-Sep-19 14:33 45.593273 -122.594876 298 41ft 9kts
10-Sep-19 14:34 45.594307 -122.597443 345 40ft 0kts
10-Sep-19 14:35 45.594307 -122.597443 345 40ft 0kts
10-Sep-19 14:36 45.594307 -122.597443 345 40ft 0kts
10-Sep-19 14:37 45.594307 -122.597443 345 40ft 0kts
10-Sep-19 14:38 45.592514 -122.589715 118 41ft 109kts
10-Sep-19 14:39 45.571402 -122.535391 119 2188ft 188kts
10-Sep-19 14:40 45.540981 -122.454254 117 4988ft 259kts
10-Sep-19 14:41 45.521235 -122.357522 65 9383ft 275kts
10-Sep-19 14:42 45.577755 -122.265205 58 11810ft 367kts
10-Sep-19 14:43 45.629836 -122.132439 61 15906ft 396kts
10-Sep-19 14:44 45.682764 -121.989924 61 18701ft 414kts
10-Sep-19 14:45 45.737709 -121.840620 61 21431ft 432kts
10-Sep-19 14:46 45.794714 -121.684806 61 23907ft 450kts
10-Sep-19 14:47 45.853770 -121.522416 61 26204ft 467kts
10-Sep-19 14:48 45.914341 -121.354843 61 28250ft 482kts
10-Sep-19 14:49 45.974541 -121.187259 62 30304ft 489kts
10-Sep-19 14:50 46.034612 -121.019085 63 30937ft 438kts
10-Sep-19 14:51 46.085956 -120.874353 64 30948ft 386kts
10-Sep-19 14:52 46.130969 -120.746828 64 30952ft 388kts
10-Sep-19 14:53 46.180346 -120.606251 64 30859ft 405kts
10-Sep-19 14:54 46.234079 -120.452438 63 30858ft 450kts
10-Sep-19 14:55 46.289933 -120.291629 64 30546ft 479kts
10-Sep-19 14:56 46.348038 -120.123310 64 28530ft 460kts
10-Sep-19 14:57 46.403887 -119.960489 64 26528ft 446kts
10-Sep-19 14:58 46.469614 -119.812599 46 24525ft 433kts
10-Sep-19 14:59 46.551267 -119.687459 47 23935ft 428kts
10-Sep-19 15:00 46.633019 -119.561556 47 23936ft 429kts
10-Sep-19 15:01 46.714916 -119.434839 47 23936ft 429kts
10-Sep-19 15:02 46.793033 -119.313417 47 22913ft 421kts
10-Sep-19 15:03 46.872115 -119.189924 47 21191ft 411kts
10-Sep-19 15:04 46.949326 -119.068801 48 19692ft 401kts
10-Sep-19 15:05 47.024135 -118.950906 47 18199ft 390kts
10-Sep-19 15:06 47.097171 -118.835304 47 16698ft 381kts
10-Sep-19 15:07 47.164644 -118.728073 47 15273ft 373kts
10-Sep-19 15:08 47.234372 -118.616798 47 13963ft 366kts
10-Sep-19 15:09 47.302464 -118.507684 47 12990ft 359kts
10-Sep-19 15:10 47.370296 -118.398540 47 13001ft 360kts
10-Sep-19 15:11 47.428388 -118.289964 69 13015ft 359kts
10-Sep-19 15:12 47.457216 -118.155995 73 12717ft 304kts
10-Sep-19 15:13 47.481620 -118.037563 73 11257ft 297kts
10-Sep-19 15:14 47.505316 -117.921661 73 9846ft 290kts
10-Sep-19 15:15 47.540750 -117.818299 44 8447ft 285kts
10-Sep-19 15:16 47.595953 -117.737912 44 7231ft 274kts
10-Sep-19 15:17 47.649565 -117.658881 44 5919ft 268kts
10-Sep-19 15:18 47.702157 -117.581294 43 4600ft 265kts
10-Sep-19 15:19 47.727756 -117.505127 126 4032ft 188kts
10-Sep-19 15:20 47.695523 -117.458268 155 3160ft 139kts
10-Sep-19 15:21 47.662228 -117.471965 224 3009ft 131kts
10-Sep-19 15:22 47.636385 -117.510428 225 2546ft 130kts
10-Sep-19 15:23 47.617923 -117.538291 226 2375ft 45kts
10-Sep-19 15:24 47.613142 -117.542755 124 2385ft 3kts
10-Sep-19 15:25 47.613744 -117.541150 46 2383ft 7kts

Navigation Log

Ident Type
Flight plan parsing failed, navigation log unavailable